createdAt,value
2022-08-09T00:00:23.314Z,15.68
2022-08-09T00:02:53.688Z,15.57
2022-08-09T00:06:17.970Z,15.46
2022-08-09T00:08:31.435Z,15.31
2022-08-09T00:11:05.953Z,15.21
2022-08-09T00:13:49.420Z,15.22
2022-08-09T00:16:17.733Z,15.13
2022-08-09T00:18:56.320Z,14.99
2022-08-09T00:21:25.344Z,14.90
2022-08-09T00:23:59.790Z,14.88
2022-08-09T00:26:30.125Z,14.79
2022-08-09T00:29:02.455Z,14.70
2022-08-09T00:31:58.349Z,14.55
2022-08-09T00:34:20.736Z,14.40
2022-08-09T00:36:49.543Z,14.34
2022-08-09T00:40:13.403Z,14.28
2022-08-09T00:44:14.505Z,14.28
2022-08-09T00:44:55.326Z,14.31
2022-08-09T00:47:24.940Z,14.24
2022-08-09T00:49:56.617Z,14.15
2022-08-09T00:52:30.543Z,14.02
2022-08-09T00:55:00.912Z,13.97
2022-08-09T00:57:34.218Z,13.89
2022-08-09T01:00:21.016Z,13.85
2022-08-09T01:02:52.152Z,13.84
2022-08-09T01:05:53.209Z,13.83
2022-08-09T01:08:17.401Z,13.86
2022-08-09T01:11:08.396Z,13.83
2022-08-09T01:13:53.163Z,13.77
2022-08-09T01:16:24.881Z,13.75
2022-08-09T01:19:01.980Z,13.69
2022-08-09T01:21:45.060Z,13.63
2022-08-09T01:24:25.637Z,13.64
2022-08-09T01:27:01.148Z,13.64
2022-08-09T01:29:41.067Z,13.59
2022-08-09T01:32:33.838Z,13.56
2022-08-09T01:35:18.053Z,13.47
2022-08-09T01:38:10.258Z,13.45
2022-08-09T01:40:45.238Z,13.35
2022-08-09T01:43:24.070Z,13.33
2022-08-09T01:45:57.959Z,13.36
2022-08-09T01:48:29.796Z,13.28
2022-08-09T01:51:00.640Z,13.24
2022-08-09T01:53:41.057Z,13.25
2022-08-09T01:56:10.922Z,13.37
2022-08-09T01:58:41.660Z,13.34
2022-08-09T02:01:18.332Z,13.31
2022-08-09T02:03:48.366Z,13.34
2022-08-09T02:06:17.461Z,13.35
2022-08-09T02:08:59.129Z,13.46
2022-08-09T02:11:41.913Z,13.50
2022-08-09T02:14:25.302Z,13.45
2022-08-09T02:17:14.743Z,13.42
2022-08-09T02:19:45.798Z,13.37
2022-08-09T02:22:31.815Z,13.29
2022-08-09T02:25:06.826Z,13.13
2022-08-09T02:27:57.397Z,13.11
2022-08-09T02:30:27.595Z,13.05
2022-08-09T02:32:57.415Z,12.95
2022-08-09T02:36:01.441Z,12.94
2022-08-09T02:38:29.023Z,12.93
2022-08-09T02:41:01.254Z,12.90
2022-08-09T02:43:30.469Z,12.87
2022-08-09T02:46:18.673Z,12.87
2022-08-09T02:48:48.580Z,12.87
2022-08-09T02:51:21.321Z,12.89
2022-08-09T02:54:00.981Z,12.83
2022-08-09T02:56:31.480Z,12.78
2022-08-09T02:59:00.773Z,12.77
2022-08-09T03:01:58.675Z,12.75
2022-08-09T03:04:20.911Z,12.74
2022-08-09T03:06:57.716Z,12.74
2022-08-09T03:09:33.488Z,12.67
2022-08-09T03:12:05.695Z,12.68
2022-08-09T03:14:40.745Z,12.62
2022-08-09T03:17:20.297Z,12.57
2022-08-09T03:19:57.888Z,12.53
2022-08-09T03:22:32.348Z,12.50
2022-08-09T03:25:21.824Z,12.42
2022-08-09T03:27:51.698Z,12.27
2022-08-09T03:30:29.207Z,12.31
2022-08-09T03:33:13.008Z,12.25
2022-08-09T03:36:13.235Z,12.16
2022-08-09T03:38:37.290Z,12.18
2022-08-09T03:41:14.760Z,12.19
2022-08-09T03:44:03.553Z,12.18
2022-08-09T03:46:33.115Z,12.15
2022-08-09T03:49:08.193Z,12.15
2022-08-09T03:51:54.998Z,12.19
2022-08-09T03:54:29.389Z,12.27
2022-08-09T03:56:58.817Z,12.30
2022-08-09T03:59:53.458Z,12.31
2022-08-09T04:02:19.897Z,12.28
2022-08-09T04:04:56.628Z,12.40
2022-08-09T04:07:47.210Z,12.44
2022-08-09T04:10:18.284Z,12.49
2022-08-09T04:12:50.838Z,12.45
2022-08-09T04:15:39.011Z,12.43
2022-08-09T04:18:09.777Z,12.38
2022-08-09T04:20:48.574Z,12.24
2022-08-09T04:23:17.900Z,12.20
2022-08-09T04:25:53.384Z,12.19
2022-08-09T04:28:31.417Z,12.10
2022-08-09T04:31:05.867Z,12.04
2022-08-09T04:33:52.865Z,12.04
2022-08-09T04:36:27.377Z,11.95
2022-08-09T04:38:56.376Z,11.92
2022-08-09T04:41:32.792Z,11.93
2022-08-09T04:44:05.856Z,11.97
2022-08-09T04:46:58.519Z,12.03
2022-08-09T04:49:40.163Z,11.93
2022-08-09T04:52:18.671Z,12.01
2022-08-09T04:54:54.506Z,12.13
2022-08-09T04:57:24.031Z,12.19
2022-08-09T04:59:53.933Z,12.40
2022-08-09T05:02:22.781Z,12.48
2022-08-09T05:06:07.674Z,12.55
2022-08-09T05:08:36.621Z,12.61
2022-08-09T05:11:07.880Z,12.71
2022-08-09T05:13:38.647Z,12.81
2022-08-09T05:16:08.948Z,12.89
2022-08-09T05:18:58.006Z,13.07
2022-08-09T05:21:46.425Z,13.20
2022-08-09T05:24:16.105Z,13.34
2022-08-09T05:26:46.103Z,13.44
2022-08-09T05:29:21.608Z,13.46
2022-08-09T05:31:56.845Z,13.56
2022-08-09T05:34:31.234Z,13.63
2022-08-09T05:37:05.948Z,13.69
2022-08-09T05:39:43.289Z,13.80
2022-08-09T05:42:17.918Z,13.95
2022-08-09T05:45:02.291Z,14.18
2022-08-09T05:47:33.287Z,14.38
2022-08-09T05:50:24.135Z,14.52
2022-08-09T05:52:54.045Z,14.74
2022-08-09T05:55:24.458Z,14.90
2022-08-09T05:57:56.808Z,15.04
2022-08-09T06:00:28.650Z,15.82
2022-08-09T06:02:58.209Z,16.40
2022-08-09T06:05:50.532Z,16.82
2022-08-09T06:08:19.789Z,16.61
2022-08-09T06:10:53.943Z,17.33
2022-08-09T06:13:22.946Z,18.02
2022-08-09T06:15:53.002Z,18.46
2022-08-09T06:18:25.305Z,19.17
2022-08-09T06:20:57.701Z,19.42
2022-08-09T06:23:55.642Z,19.81
2022-08-09T06:26:20.839Z,20.09
2022-08-09T06:29:00.386Z,20.05
2022-08-09T06:31:40.034Z,20.80
2022-08-09T06:34:23.521Z,21.30
2022-08-09T06:36:58.903Z,21.58
2022-08-09T06:39:48.208Z,21.23
2022-08-09T06:42:24.773Z,22.47
2022-08-09T06:44:58.229Z,23.03
2022-08-09T06:47:39.407Z,22.60
2022-08-09T06:50:14.551Z,23.29
2022-08-09T06:52:48.452Z,24.07
2022-08-09T06:55:23.146Z,23.85
2022-08-09T06:58:02.502Z,24.24
2022-08-09T07:00:53.058Z,24.66
2022-08-09T07:03:27.788Z,24.93
2022-08-09T07:06:04.142Z,24.42
2022-08-09T07:08:37.243Z,24.94
2022-08-09T07:11:12.712Z,24.58
2022-08-09T07:13:44.928Z,25.02
2022-08-09T07:16:41.951Z,25.53
2022-08-09T07:19:15.799Z,26.02
2022-08-09T07:21:55.583Z,26.67
2022-08-09T07:24:32.710Z,27.15
2022-08-09T07:27:33.333Z,27.77
2022-08-09T07:30:02.448Z,27.73
2022-08-09T07:32:32.204Z,27.46
2022-08-09T07:35:08.197Z,27.93
2022-08-09T07:37:44.410Z,27.66
2022-08-09T07:40:17.261Z,28.12
2022-08-09T07:42:56.933Z,28.32
2022-08-09T07:45:39.178Z,26.99
2022-08-09T07:48:28.675Z,26.67
2022-08-09T07:51:10.032Z,26.64
2022-08-09T07:54:07.037Z,26.89
2022-08-09T07:56:45.192Z,26.33
2022-08-09T07:59:34.016Z,25.90
2022-08-09T08:02:09.720Z,27.58
2022-08-09T08:04:38.972Z,27.87
2022-08-09T08:07:57.389Z,28.10
2022-08-09T08:10:08.001Z,28.94
2022-08-09T08:12:43.109Z,29.41
2022-08-09T08:15:17.299Z,30.08
2022-08-09T08:17:54.889Z,28.51
2022-08-09T08:20:29.336Z,29.86
2022-08-09T08:23:03.557Z,30.87
2022-08-09T08:25:40.147Z,31.11
2022-08-09T08:28:14.256Z,31.14
2022-08-09T08:30:47.500Z,31.23
2022-08-09T08:33:24.441Z,31.06
2022-08-09T08:36:00.071Z,31.12
2022-08-09T08:38:29.852Z,30.95
2022-08-09T08:40:59.672Z,31.73
2022-08-09T08:43:28.520Z,31.85
2022-08-09T08:46:31.975Z,32.31
2022-08-09T08:48:55.261Z,32.27
2022-08-09T08:51:24.590Z,32.49
2022-08-09T08:54:03.640Z,33.07
2022-08-09T08:56:35.952Z,33.42
2022-08-09T08:59:18.781Z,33.07
2022-08-09T09:01:53.152Z,33.41
2022-08-09T09:04:31.373Z,32.93
2022-08-09T09:07:12.095Z,33.35
2022-08-09T09:09:59.404Z,33.72
2022-08-09T09:12:34.422Z,32.37
2022-08-09T09:15:07.116Z,32.60
2022-08-09T09:17:49.122Z,33.60
2022-08-09T09:20:21.862Z,32.98
2022-08-09T09:22:52.143Z,33.49
2022-08-09T09:26:03.555Z,33.77
2022-08-09T09:29:04.100Z,34.16
2022-08-09T09:32:05.989Z,33.93
2022-08-09T09:34:29.018Z,33.75
2022-08-09T09:36:59.004Z,34.25
2022-08-09T09:39:50.440Z,34.14
2022-08-09T09:42:24.769Z,34.04
2022-08-09T09:44:58.740Z,33.71
2022-08-09T09:47:28.385Z,34.22
2022-08-09T09:50:15.147Z,34.51
2022-08-09T09:52:54.594Z,34.06
2022-08-09T09:55:32.175Z,35.11
2022-08-09T09:58:16.301Z,35.60
2022-08-09T10:00:54.186Z,35.83
2022-08-09T10:03:57.687Z,35.33
2022-08-09T10:06:32.239Z,35.69
2022-08-09T10:09:21.817Z,34.93
2022-08-09T10:12:04.493Z,35.56
2022-08-09T10:14:48.426Z,35.92
2022-08-09T10:17:50.755Z,36.14
2022-08-09T10:20:32.566Z,35.15
2022-08-09T10:23:19.978Z,36.33
2022-08-09T10:26:04.183Z,36.79
2022-08-09T10:28:35.629Z,36.37
2022-08-09T10:34:09.041Z,36.46
2022-08-09T10:36:42.654Z,35.38
2022-08-09T10:39:15.423Z,36.38
2022-08-09T10:41:47.827Z,36.22
2022-08-09T10:44:21.977Z,36.39
2022-08-09T10:47:14.142Z,36.82
2022-08-09T10:50:17.865Z,36.30
2022-08-09T10:53:23.014Z,36.07
2022-08-09T10:56:22.682Z,35.93
2022-08-09T10:58:54.103Z,36.90
2022-08-09T11:03:15.187Z,36.97
2022-08-09T11:04:33.004Z,36.90
2022-08-09T11:07:57.145Z,36.81
2022-08-09T11:10:59.883Z,36.34
2022-08-09T11:13:49.958Z,36.75
2022-08-09T11:16:35.579Z,36.92
2022-08-09T11:19:09.348Z,36.86
2022-08-09T11:22:10.608Z,37.25
2022-08-09T11:25:08.321Z,36.56
2022-08-09T11:28:07.936Z,36.51
2022-08-09T11:30:36.774Z,36.08
2022-08-09T11:33:26.413Z,35.83
2022-08-09T11:35:58.427Z,36.37
2022-08-09T11:38:32.868Z,35.74
2022-08-09T11:41:22.534Z,36.16
2022-08-09T11:43:53.014Z,36.55
2022-08-09T11:46:33.389Z,36.14
2022-08-09T11:49:04.970Z,35.97
2022-08-09T11:53:00.750Z,37.31
2022-08-09T11:55:35.129Z,36.10
2022-08-09T11:58:48.234Z,36.06
2022-08-09T12:02:15.750Z,36.18
2022-08-09T12:04:28.861Z,37.05
2022-08-09T12:07:08.350Z,37.09
2022-08-09T12:09:37.862Z,36.03
2022-08-09T12:12:13.136Z,36.70
2022-08-09T12:15:08.082Z,37.10
2022-08-09T12:17:44.840Z,37.79
2022-08-09T12:20:22.453Z,37.49
2022-08-09T12:22:56.159Z,36.83
2022-08-09T12:25:36.795Z,36.83
2022-08-09T12:29:10.641Z,36.66
2022-08-09T12:31:01.219Z,37.08
2022-08-09T12:33:51.195Z,37.11
2022-08-09T12:36:34.126Z,37.73
2022-08-09T12:39:15.463Z,36.66
2022-08-09T12:41:44.223Z,37.51
2022-08-09T12:44:13.476Z,36.47
2022-08-09T12:46:48.934Z,36.87
2022-08-09T12:49:22.151Z,37.13
2022-08-09T12:52:02.834Z,37.30
2022-08-09T12:56:11.158Z,36.72
2022-08-09T12:57:40.547Z,36.14
2022-08-09T13:00:16.641Z,34.96
2022-08-09T13:02:54.446Z,35.58
2022-08-09T13:05:26.530Z,35.63
2022-08-09T13:08:16.160Z,35.83
2022-08-09T13:10:52.172Z,35.84
2022-08-09T13:14:11.866Z,36.55
2022-08-09T13:16:21.187Z,36.65
2022-08-09T13:18:53.998Z,36.35
2022-08-09T13:22:35.772Z,35.92
2022-08-09T13:24:48.470Z,36.28
2022-08-09T13:27:08.450Z,36.49
2022-08-09T13:30:02.430Z,36.03
2022-08-09T13:32:29.168Z,34.84
2022-08-09T13:34:58.120Z,35.03
2022-08-09T13:37:52.290Z,35.16
2022-08-09T13:41:55.683Z,35.03
2022-08-09T13:43:09.755Z,35.76
2022-08-09T13:46:44.456Z,35.56
2022-08-09T13:48:30.020Z,34.28
2022-08-09T13:50:59.103Z,33.83
2022-08-09T13:53:41.390Z,33.00
2022-08-09T13:56:13.522Z,32.42
2022-08-09T13:58:42.281Z,32.23
2022-08-09T14:01:13.440Z,31.47
2022-08-09T14:04:02.859Z,31.46
2022-08-09T14:06:36.906Z,31.51
2022-08-09T14:09:10.838Z,30.97
2022-08-09T14:11:47.268Z,30.56
2022-08-09T14:14:25.827Z,30.63
2022-08-09T14:16:56.652Z,30.20
2022-08-09T14:19:33.331Z,30.16
2022-08-09T14:22:03.201Z,29.85
2022-08-09T14:24:34.520Z,29.99
2022-08-09T14:27:03.209Z,30.03
2022-08-09T14:30:19.322Z,29.75
2022-08-09T14:32:37.899Z,29.85
2022-08-09T14:35:08.289Z,29.82
2022-08-09T14:37:41.102Z,29.28
2022-08-09T14:40:39.083Z,29.40
2022-08-09T14:43:18.567Z,29.51
2022-08-09T14:46:56.092Z,29.30
2022-08-09T14:48:36.803Z,29.23
2022-08-09T14:51:07.309Z,29.12
2022-08-09T14:53:39.840Z,28.84
2022-08-09T14:56:15.665Z,28.94
2022-08-09T14:58:48.067Z,28.81
2022-08-09T15:01:24.950Z,28.66
2022-08-09T15:03:54.693Z,28.37
2022-08-09T15:06:23.400Z,28.48
2022-08-09T15:08:56.585Z,28.50
2022-08-09T15:11:28.001Z,28.47
2022-08-09T15:14:04.814Z,28.41
2022-08-09T15:16:42.398Z,28.28
2022-08-09T15:19:17.837Z,28.23
2022-08-09T15:21:58.616Z,28.14
2022-08-09T15:24:30.651Z,28.04
2022-08-09T15:27:01.012Z,28.03
2022-08-09T15:30:48.684Z,27.85
2022-08-09T15:32:29.524Z,27.69
2022-08-09T15:35:01.001Z,27.53
2022-08-09T15:37:57.281Z,27.49
2022-08-09T15:40:32.047Z,27.60
2022-08-09T15:43:02.867Z,27.58
2022-08-09T15:46:07.334Z,27.67
2022-08-09T15:48:29.000Z,27.69
2022-08-09T15:51:00.054Z,27.70
2022-08-09T15:54:04.922Z,27.61
2022-08-09T15:56:29.082Z,27.63
2022-08-09T15:59:01.019Z,27.53
2022-08-09T16:01:35.547Z,27.50
2022-08-09T16:04:04.740Z,27.49
2022-08-09T16:06:37.474Z,27.43
2022-08-09T16:09:07.208Z,27.29
2022-08-09T16:11:35.895Z,27.19
2022-08-09T16:14:08.012Z,27.17
2022-08-09T16:16:38.928Z,27.17
2022-08-09T16:19:08.624Z,27.06
2022-08-09T16:21:37.717Z,27.05
2022-08-09T16:24:08.997Z,26.91
2022-08-09T16:26:56.898Z,26.84
2022-08-09T16:29:37.307Z,26.79
2022-08-09T16:32:18.512Z,26.79
2022-08-09T16:34:57.822Z,26.78
2022-08-09T16:37:55.686Z,26.68
2022-08-09T16:40:20.681Z,26.70
2022-08-09T16:42:59.504Z,26.62
2022-08-09T16:45:32.608Z,26.55
2022-08-09T16:48:50.308Z,26.37
2022-08-09T16:50:59.194Z,26.24
2022-08-09T16:53:32.279Z,26.25
2022-08-09T16:56:09.424Z,26.22
2022-08-09T16:58:42.481Z,26.21
2022-08-09T17:01:25.122Z,26.18
2022-08-09T17:03:54.314Z,26.14
2022-08-09T17:06:31.236Z,26.07
2022-08-09T17:09:13.549Z,26.02
2022-08-09T17:11:52.368Z,25.98
2022-08-09T17:14:27.123Z,25.96
2022-08-09T17:17:03.321Z,25.93
2022-08-09T17:19:47.348Z,25.86
2022-08-09T17:22:28.667Z,25.80
2022-08-09T17:25:03.730Z,25.72
2022-08-09T17:27:33.786Z,25.69
2022-08-09T17:30:06.698Z,25.64
2022-08-09T17:32:38.616Z,25.62
2022-08-09T17:35:12.233Z,25.55
2022-08-09T17:38:14.613Z,25.45
2022-08-09T17:40:32.111Z,25.37
2022-08-09T17:43:03.293Z,25.32
2022-08-09T17:46:02.098Z,25.29
2022-08-09T17:48:30.661Z,25.32
2022-08-09T17:51:09.583Z,25.35
2022-08-09T17:53:43.067Z,25.38
2022-08-09T17:56:18.210Z,25.29
2022-08-09T17:58:51.021Z,25.16
2022-08-09T18:01:23.026Z,25.16
2022-08-09T18:03:54.837Z,25.06
2022-08-09T18:06:31.874Z,24.94
2022-08-09T18:09:06.568Z,24.88
2022-08-09T18:11:47.077Z,24.85
2022-08-09T18:14:27.891Z,24.70
2022-08-09T18:16:56.796Z,24.71
2022-08-09T18:20:57.269Z,24.70
2022-08-09T18:22:17.165Z,24.63
2022-08-09T18:24:51.861Z,24.63
2022-08-09T18:27:59.882Z,24.52
2022-08-09T18:30:38.673Z,24.43
2022-08-09T18:33:00.515Z,24.29
2022-08-09T18:35:56.294Z,24.16
2022-08-09T18:38:19.790Z,24.11
2022-08-09T18:40:49.517Z,24.11
2022-08-09T18:43:19.284Z,23.95
2022-08-09T18:46:46.760Z,23.83
2022-08-09T18:48:42.333Z,23.72
2022-08-09T18:51:12.662Z,23.64
2022-08-09T18:54:00.644Z,23.44
2022-08-09T18:56:30.899Z,23.36
2022-08-09T18:59:02.754Z,23.26
2022-08-09T19:01:43.491Z,23.22
2022-08-09T19:04:15.032Z,23.26
2022-08-09T19:06:48.831Z,23.22
2022-08-09T19:09:34.102Z,23.14
2022-08-09T19:12:09.567Z,22.96
2022-08-09T19:14:38.960Z,22.90
2022-08-09T19:17:12.280Z,22.84
2022-08-09T19:19:42.715Z,22.88
2022-08-09T19:22:13.083Z,22.80
2022-08-09T19:25:12.084Z,22.73
2022-08-09T19:27:35.847Z,22.63
2022-08-09T19:30:22.145Z,22.67
2022-08-09T19:32:55.464Z,22.66
2022-08-09T19:35:26.161Z,22.81
2022-08-09T19:37:57.916Z,22.83
2022-08-09T19:40:34.253Z,22.82
2022-08-09T19:43:05.343Z,22.81
2022-08-09T19:45:40.291Z,22.68
2022-08-09T19:48:11.913Z,22.59
2022-08-09T19:50:49.574Z,22.60
2022-08-09T19:53:22.068Z,22.58
2022-08-09T19:56:02.726Z,22.49
2022-08-09T19:58:35.802Z,22.45
2022-08-09T20:01:04.775Z,22.42
2022-08-09T20:04:18.640Z,22.30
2022-08-09T20:06:31.305Z,22.25
2022-08-09T20:09:01.876Z,22.30
2022-08-09T20:11:42.854Z,22.21
2022-08-09T20:14:17.735Z,22.14
2022-08-09T20:16:53.605Z,22.09
2022-08-09T20:19:49.583Z,21.93
2022-08-09T20:22:14.298Z,21.91
2022-08-09T20:24:54.068Z,21.90
2022-08-09T20:27:23.630Z,21.78
2022-08-09T20:29:52.344Z,21.67
2022-08-09T20:32:29.831Z,21.55
2022-08-09T20:35:01.439Z,21.46
2022-08-09T20:38:18.768Z,21.47
2022-08-09T20:40:27.102Z,21.55
2022-08-09T20:42:59.726Z,21.43
2022-08-09T20:46:01.923Z,21.28
2022-08-09T20:48:30.814Z,21.17
2022-08-09T20:51:01.128Z,21.10
2022-08-09T20:53:36.148Z,20.97
2022-08-09T20:56:21.271Z,20.84
2022-08-09T20:58:54.653Z,20.74
2022-08-09T21:01:34.767Z,20.61
2022-08-09T21:05:53.444Z,20.43
2022-08-09T21:07:11.434Z,20.31
2022-08-09T21:09:46.127Z,20.14
2022-08-09T21:15:34.888Z,20.05
2022-08-09T21:18:23.133Z,19.91
2022-08-09T21:20:54.184Z,19.75
2022-08-09T21:23:36.019Z,19.63
2022-08-09T21:26:12.228Z,19.49
2022-08-09T21:28:55.391Z,19.43
2022-08-09T21:31:48.784Z,19.32
2022-08-09T21:34:21.072Z,19.19
2022-08-09T21:36:57.967Z,19.05
2022-08-09T21:39:27.988Z,18.90
2022-08-09T21:42:11.122Z,18.75
2022-08-09T21:44:43.534Z,18.67
2022-08-09T21:47:18.255Z,18.53
2022-08-09T21:49:48.050Z,18.41
2022-08-09T21:52:20.321Z,18.34
2022-08-09T21:54:59.352Z,18.22
2022-08-09T21:57:39.120Z,18.11
2022-08-09T22:00:31.892Z,17.97
2022-08-09T22:03:04.821Z,17.95
2022-08-09T22:05:37.285Z,17.87
2022-08-09T22:08:14.691Z,17.80
2022-08-09T22:11:50.167Z,17.66
2022-08-09T22:13:36.654Z,17.54
2022-08-09T22:16:09.494Z,17.45
2022-08-09T22:18:53.544Z,17.44
2022-08-09T22:21:45.060Z,17.38
2022-08-09T22:24:24.075Z,17.19
2022-08-09T22:26:54.133Z,17.19
2022-08-09T22:29:28.858Z,17.12
2022-08-09T22:32:06.572Z,17.11
2022-08-09T22:34:59.205Z,17.00
2022-08-09T22:37:35.818Z,16.95
2022-08-09T22:40:20.080Z,16.84
2022-08-09T22:42:49.052Z,16.75
2022-08-09T22:48:14.552Z,16.73
2022-08-09T22:48:17.989Z,16.65
2022-08-09T22:50:56.761Z,16.56
2022-08-09T22:53:26.056Z,16.53
2022-08-09T22:56:31.153Z,16.47
2022-08-09T22:59:05.873Z,16.48
2022-08-09T23:01:50.627Z,16.50
2022-08-09T23:04:20.992Z,16.41
2022-08-09T23:07:11.328Z,16.42
2022-08-09T23:09:42.584Z,16.36
2022-08-09T23:12:12.256Z,16.32
2022-08-09T23:14:41.947Z,16.28
2022-08-09T23:17:10.831Z,16.23
2022-08-09T23:20:07.244Z,16.17
2022-08-09T23:22:29.461Z,16.19
2022-08-09T23:24:58.368Z,16.13
2022-08-09T23:27:27.108Z,16.08
2022-08-09T23:29:56.175Z,15.99
2022-08-09T23:32:24.859Z,16.00
2022-08-09T23:34:54.953Z,15.94
2022-08-09T23:37:35.069Z,15.84
2022-08-09T23:40:05.073Z,15.78
2022-08-09T23:42:33.977Z,15.72
2022-08-09T23:45:04.040Z,15.70
2022-08-09T23:47:35.942Z,15.59
2022-08-09T23:50:06.251Z,15.47
2022-08-09T23:52:35.016Z,15.43
2022-08-09T23:55:03.803Z,15.47
2022-08-09T23:57:32.863Z,15.44
